Time,TemperatureF,DewpointF,PressureIn,WindDirection,WindDirectionDegrees,WindSpeedMPH,WindSpeedGustMPH,Humidity,HourlyPrecipIn,Conditions,Clouds,dailyrainin,SoftwareType,DateUTC
2013-10-27 00:03:00,38.2,32.0,29.90,West,275,5.0,11.0,79,0.00,,,0.00,weatherlink.com 1.10,2013-10-27 04:03:00,
2013-10-27 00:18:00,38.9,33.0,29.90,NW,304,8.0,15.0,79,0.00,,,0.00,weatherlink.com 1.10,2013-10-27 04:18:00,
2013-10-27 00:33:00,38.7,33.0,29.91,NW,314,9.0,15.0,79,0.00,,,0.00,weatherlink.com 1.10,2013-10-27 04:33:00,
2013-10-27 00:49:00,38.6,33.0,29.90,West,278,8.0,16.0,80,0.00,,,0.00,weatherlink.com 1.10,2013-10-27 04:49:00,
2013-10-27 01:04:00,38.1,32.0,29.90,West,281,3.0,10.0,80,0.00,,,0.00,weatherlink.com 1.10,2013-10-27 05:04:00,
2013-10-27 01:19:00,38.0,33.0,29.90,NW,309,9.0,11.0,81,0.00,,,0.00,weatherlink.com 1.10,2013-10-27 05:19:00,
2013-10-27 01:34:00,38.1,33.0,29.91,NW,311,5.0,10.0,81,0.00,,,0.00,weatherlink.com 1.10,2013-10-27 05:34:00,
2013-10-27 01:49:00,37.4,32.0,29.91,WSW,244,3.0,7.0,80,0.00,,,0.00,weatherlink.com 1.10,2013-10-27 05:49:00,
2013-10-27 02:04:00,36.7,32.0,29.91,West,266,4.0,10.0,83,0.00,,,0.00,weatherlink.com 1.10,2013-10-27 06:04:00,
2013-10-27 02:19:00,36.8,33.0,29.91,WSW,250,3.0,7.0,86,0.00,,,0.00,weatherlink.com 1.10,2013-10-27 06:19:00,
2013-10-27 02:49:00,36.0,33.0,29.91,WSW,240,3.0,5.0,88,0.00,,,0.00,weatherlink.com 1.10,2013-10-27 06:49:00,
2013-10-27 03:04:00,36.3,33.0,29.92,WSW,242,4.0,7.0,88,0.00,,,0.00,weatherlink.com 1.10,2013-10-27 07:04:00,
2013-10-27 03:19:00,36.5,33.0,29.92,WSW,242,4.0,5.0,88,0.00,,,0.00,weatherlink.com 1.10,2013-10-27 07:19:00,
2013-10-27 03:34:00,36.7,32.0,29.91,West,270,4.0,8.0,84,0.00,,,0.00,weatherlink.com 1.10,2013-10-27 07:34:00,
2013-10-27 03:49:00,37.0,32.0,29.91,West,276,5.0,8.0,83,0.00,,,0.00,weatherlink.com 1.10,2013-10-27 07:49:00,
2013-10-27 04:04:00,36.9,32.0,29.91,West,259,6.0,7.0,83,0.00,,,0.00,weatherlink.com 1.10,2013-10-27 08:04:00,
2013-10-27 04:19:00,36.7,34.0,29.92,WSW,246,4.0,8.0,88,0.00,,,0.00,weatherlink.com 1.10,2013-10-27 08:19:00,
2013-10-27 04:34:00,36.6,34.0,29.91,WSW,250,0.0,6.0,89,0.00,,,0.00,weatherlink.com 1.10,2013-10-27 08:34:00,
2013-10-27 04:49:00,36.2,33.0,29.91,WSW,248,3.0,6.0,89,0.00,,,0.00,weatherlink.com 1.10,2013-10-27 08:49:00,
2013-10-27 05:04:00,35.6,33.0,29.91,WSW,252,6.0,6.0,90,0.00,,,0.00,weatherlink.com 1.10,2013-10-27 09:04:00,
2013-10-27 05:19:00,35.1,33.0,29.91,WSW,253,3.0,5.0,91,0.00,,,0.00,weatherlink.com 1.10,2013-10-27 09:19:00,
2013-10-27 05:34:00,35.1,33.0,29.91,WSW,252,5.0,7.0,91,0.00,,,0.00,weatherlink.com 1.10,2013-10-27 09:34:00,
2013-10-27 05:49:00,35.2,33.0,29.93,WSW,239,2.0,5.0,91,0.00,,,0.00,weatherlink.com 1.10,2013-10-27 09:49:00,
2013-10-27 06:04:00,35.0,33.0,29.93,SW,228,2.0,5.0,91,0.00,,,0.00,weatherlink.com 1.10,2013-10-27 10:04:00,
2013-10-27 06:19:00,34.8,33.0,29.93,SW,232,4.0,5.0,91,0.00,,,0.00,weatherlink.com 1.10,2013-10-27 10:19:00,
2013-10-27 06:34:00,34.6,33.0,29.93,SW,232,3.0,6.0,92,0.00,,,0.00,weatherlink.com 1.10,2013-10-27 10:34:00,
2013-10-27 06:49:00,34.6,33.0,29.93,WSW,246,2.0,5.0,92,0.00,,,0.00,weatherlink.com 1.10,2013-10-27 10:49:00,
2013-10-27 07:04:00,34.8,33.0,29.93,WSW,238,5.0,5.0,93,0.00,,,0.00,weatherlink.com 1.10,2013-10-27 11:04:00,
2013-10-27 07:19:00,35.0,33.0,29.93,WSW,249,3.0,6.0,92,0.00,,,0.00,weatherlink.com 1.10,2013-10-27 11:19:00,
2013-10-27 07:34:00,34.6,33.0,29.93,SW,236,3.0,4.0,92,0.00,,,0.00,weatherlink.com 1.10,2013-10-27 11:34:00,
2013-10-27 07:49:00,34.3,33.0,29.93,SW,224,2.0,5.0,93,0.00,,,0.00,weatherlink.com 1.10,2013-10-27 11:49:00,
2013-10-27 08:04:00,34.0,32.0,29.93,SW,220,3.0,5.0,93,0.00,,,0.00,weatherlink.com 1.10,2013-10-27 12:04:00,
2013-10-27 08:19:00,34.1,32.0,29.94,WSW,238,3.0,6.0,93,0.00,,,0.00,weatherlink.com 1.10,2013-10-27 12:19:00,
2013-10-27 08:34:00,33.9,32.0,29.94,WSW,252,4.0,5.0,93,0.00,,,0.00,weatherlink.com 1.10,2013-10-27 12:34:00,
2013-10-27 08:49:00,33.8,32.0,29.95,SW,236,3.0,8.0,94,0.00,,,0.00,weatherlink.com 1.10,2013-10-27 12:49:00,
2013-10-27 09:04:00,34.8,33.0,29.94,WSW,253,4.0,8.0,93,0.00,,,0.00,weatherlink.com 1.10,2013-10-27 13:04:00,
2013-10-27 09:19:00,36.3,34.0,29.95,WSW,238,2.0,5.0,91,0.00,,,0.00,weatherlink.com 1.10,2013-10-27 13:19:00,
2013-10-27 09:34:00,36.9,34.0,29.95,WSW,239,3.0,5.0,89,0.00,,,0.00,weatherlink.com 1.10,2013-10-27 13:34:00,
2013-10-27 09:49:00,37.3,34.0,29.96,SSW,207,7.0,11.0,86,0.00,,,0.00,weatherlink.com 1.10,2013-10-27 13:49:00,
2013-10-27 10:04:00,37.5,33.0,29.96,WSW,257,2.0,8.0,85,0.00,,,0.00,weatherlink.com 1.10,2013-10-27 14:04:00,
2013-10-27 10:19:00,37.8,33.0,29.95,SW,223,2.0,4.0,83,0.00,,,0.00,weatherlink.com 1.10,2013-10-27 14:19:00,
2013-10-27 10:34:00,38.5,33.0,29.95,SW,234,2.0,6.0,81,0.00,,,0.00,weatherlink.com 1.10,2013-10-27 14:34:00,
2013-10-27 10:49:00,39.2,33.0,29.95,WSW,239,7.0,11.0,78,0.00,,,0.00,weatherlink.com 1.10,2013-10-27 14:49:00,
2013-10-27 11:04:00,39.9,33.0,29.95,SW,225,3.0,7.0,76,0.00,,,0.00,weatherlink.com 1.10,2013-10-27 15:04:00,
2013-10-27 11:19:00,40.8,33.0,29.95,West,279,7.0,14.0,74,0.00,,,0.00,weatherlink.com 1.10,2013-10-27 15:19:00,
2013-10-27 11:34:00,39.9,35.0,29.95,SSW,211,5.0,12.0,81,0.00,,,0.00,weatherlink.com 1.10,2013-10-27 15:34:00,
2013-10-27 11:49:00,39.8,35.0,29.95,SSW,193,8.0,12.0,82,0.00,,,0.00,weatherlink.com 1.10,2013-10-27 15:49:00,
2013-10-27 12:04:00,39.9,35.0,29.95,SSE,152,2.0,10.0,81,0.00,,,0.00,weatherlink.com 1.10,2013-10-27 16:04:00,
2013-10-27 12:19:00,40.2,35.0,29.95,WSW,246,4.0,5.0,82,0.00,,,0.00,weatherlink.com 1.10,2013-10-27 16:19:00,
2013-10-27 12:34:00,41.3,34.0,29.95,SSW,201,5.0,8.0,76,0.00,,,0.00,weatherlink.com 1.10,2013-10-27 16:34:00,
2013-10-27 12:49:00,41.8,33.0,29.94,South,173,3.0,11.0,72,0.00,,,0.00,weatherlink.com 1.10,2013-10-27 16:49:00,
2013-10-27 13:04:00,42.1,33.0,29.94,SSW,205,6.0,13.0,71,0.00,,,0.00,weatherlink.com 1.10,2013-10-27 17:04:00,
2013-10-27 13:19:00,41.8,34.0,29.93,South,182,9.0,16.0,74,0.00,,,0.00,weatherlink.com 1.10,2013-10-27 17:19:00,
2013-10-27 13:34:00,40.1,34.0,29.93,WSW,247,10.0,16.0,80,0.00,,,0.00,weatherlink.com 1.10,2013-10-27 17:34:00,
2013-10-27 13:49:00,38.4,34.0,29.93,SW,217,7.0,14.0,84,0.00,,,0.00,weatherlink.com 1.10,2013-10-27 17:49:00,
2013-10-27 14:04:00,37.0,34.0,29.93,WSW,253,7.0,13.0,88,0.01,,,0.01,weatherlink.com 1.10,2013-10-27 18:04:00,
2013-10-27 14:19:00,37.1,35.0,29.92,WSW,246,2.0,10.0,90,0.02,,,0.02,weatherlink.com 1.10,2013-10-27 18:19:00,
2013-10-27 14:34:00,37.6,35.0,29.92,SW,221,2.0,7.0,91,0.02,,,0.02,weatherlink.com 1.10,2013-10-27 18:34:00,
2013-10-27 14:49:00,38.2,36.0,29.91,SSE,163,1.0,4.0,91,0.02,,,0.02,weatherlink.com 1.10,2013-10-27 18:49:00,
2013-10-27 15:04:00,38.5,36.0,29.90,South,185,1.0,4.0,91,0.01,,,0.02,weatherlink.com 1.10,2013-10-27 19:04:00,
2013-10-27 15:19:00,38.6,36.0,29.90,South,169,1.0,4.0,91,0.01,,,0.03,weatherlink.com 1.10,2013-10-27 19:19:00,
2013-10-27 15:34:00,39.1,37.0,29.90,SSE,168,1.0,5.0,92,0.01,,,0.03,weatherlink.com 1.10,2013-10-27 19:34:00,
2013-10-27 15:49:00,39.3,37.0,29.90,SE,146,1.0,4.0,92,0.01,,,0.03,weatherlink.com 1.10,2013-10-27 19:49:00,
2013-10-27 16:04:00,39.5,37.0,29.89,SE,142,2.0,3.0,92,0.01,,,0.03,weatherlink.com 1.10,2013-10-27 20:04:00,
2013-10-27 16:19:00,39.7,38.0,29.89,SE,145,1.0,3.0,93,0.01,,,0.04,weatherlink.com 1.10,2013-10-27 20:19:00,
2013-10-27 16:34:00,39.6,38.0,29.89,SSW,205,1.0,6.0,92,0.02,,,0.05,weatherlink.com 1.10,2013-10-27 20:34:00,
2013-10-27 16:49:00,39.7,38.0,29.89,SSW,205,0.0,2.0,93,0.02,,,0.05,weatherlink.com 1.10,2013-10-27 20:49:00,
2013-10-27 17:04:00,39.8,38.0,29.89,SSE,151,2.0,3.0,93,0.03,,,0.06,weatherlink.com 1.10,2013-10-27 21:04:00,
2013-10-27 17:19:00,40.0,39.0,29.89,SE,137,0.0,4.0,94,0.02,,,0.06,weatherlink.com 1.10,2013-10-27 21:19:00,
2013-10-27 17:34:00,39.8,38.0,29.88,SE,146,1.0,4.0,94,0.01,,,0.06,weatherlink.com 1.10,2013-10-27 21:34:00,
2013-10-27 17:50:00,39.8,38.0,29.89,SSE,165,0.0,2.0,94,0.01,,,0.00,weatherlink.com 1.10,2013-10-27 21:50:00,
2013-10-27 18:05:00,39.8,38.0,29.89,SSE,165,0.0,1.0,94,0.00,,,0.00,weatherlink.com 1.10,2013-10-27 22:05:00,
2013-10-27 18:20:00,39.8,38.0,29.89,South,176,0.0,3.0,94,0.00,,,0.00,weatherlink.com 1.10,2013-10-27 22:20:00,
2013-10-27 18:35:00,40.3,39.0,29.89,SW,234,2.0,5.0,93,0.01,,,0.01,weatherlink.com 1.10,2013-10-27 22:35:00,
2013-10-27 18:50:00,40.4,39.0,29.89,SW,229,1.0,3.0,93,0.01,,,0.01,weatherlink.com 1.10,2013-10-27 22:50:00,
2013-10-27 19:05:00,40.3,39.0,29.90,SW,229,0.0,1.0,93,0.02,,,0.02,weatherlink.com 1.10,2013-10-27 23:05:00,
2013-10-27 19:20:00,40.2,38.0,29.90,West,277,2.0,3.0,93,0.02,,,0.02,weatherlink.com 1.10,2013-10-27 23:20:00,
2013-10-27 19:35:00,40.4,39.0,29.91,WSW,252,1.0,4.0,93,0.01,,,0.02,weatherlink.com 1.10,2013-10-27 23:35:00,
2013-10-27 19:50:00,40.4,39.0,29.91,WSW,257,1.0,4.0,93,0.02,,,0.03,weatherlink.com 1.10,2013-10-27 23:50:00,
2013-10-27 20:05:00,40.3,39.0,29.91,WSW,241,0.0,3.0,93,0.01,,,0.03,weatherlink.com 1.10,2013-10-28 00:05:00,
2013-10-27 20:20:00,40.2,39.0,29.91,WSW,241,1.0,2.0,94,0.02,,,0.04,weatherlink.com 1.10,2013-10-28 00:20:00,
2013-10-27 20:35:00,40.1,39.0,29.91,WSW,251,0.0,3.0,94,0.02,,,0.04,weatherlink.com 1.10,2013-10-28 00:35:00,
2013-10-27 20:50:00,40.0,39.0,29.91,WSW,248,1.0,2.0,94,0.02,,,0.05,weatherlink.com 1.10,2013-10-28 00:50:00,
2013-10-27 21:05:00,39.9,38.0,29.92,WSW,249,1.0,3.0,94,0.03,,,0.06,weatherlink.com 1.10,2013-10-28 01:05:00,
2013-10-27 21:20:00,40.3,39.0,29.92,West,264,5.0,8.0,94,0.02,,,0.06,weatherlink.com 1.10,2013-10-28 01:20:00,
2013-10-27 21:35:00,40.5,39.0,29.93,WNW,282,6.0,9.0,94,0.03,,,0.07,weatherlink.com 1.10,2013-10-28 01:35:00,
2013-10-27 21:50:00,40.5,39.0,29.93,West,264,6.0,7.0,94,0.03,,,0.08,weatherlink.com 1.10,2013-10-28 01:50:00,
2013-10-27 22:05:00,40.5,39.0,29.93,West,271,6.0,7.0,93,0.02,,,0.08,weatherlink.com 1.10,2013-10-28 02:05:00,
2013-10-27 22:20:00,40.5,38.0,29.94,WSW,257,6.0,8.0,92,0.02,,,0.08,weatherlink.com 1.10,2013-10-28 02:20:00,
2013-10-27 22:35:00,40.7,38.0,29.94,WNW,298,8.0,9.0,91,0.01,,,0.08,weatherlink.com 1.10,2013-10-28 02:35:00,
2013-10-27 22:50:00,40.7,38.0,29.95,West,270,5.0,10.0,90,0.00,,,0.08,weatherlink.com 1.10,2013-10-28 02:50:00,
2013-10-27 23:05:00,40.6,38.0,29.96,West,261,5.0,9.0,89,0.00,,,0.08,weatherlink.com 1.10,2013-10-28 03:05:00,
2013-10-27 23:20:00,40.6,37.0,29.96,WSW,249,6.0,12.0,88,0.00,,,0.08,weatherlink.com 1.10,2013-10-28 03:20:00,
2013-10-27 23:35:00,40.4,37.0,29.96,West,261,5.0,11.0,88,0.00,,,0.08,weatherlink.com 1.10,2013-10-28 03:35:00,
2013-10-27 23:50:00,40.5,37.0,29.97,West,275,10.0,13.0,88,0.00,,,0.08,weatherlink.com 1.10,2013-10-28 03:50:00,